地図

経路データ

SID SEASON NUMBER BASIN SUBBASIN NAME ISO_TIME NATURE LAT LON WMO_WIND WMO_PRES WMO_AGENCY TRACK_TYPE DIST2LAND LANDFALL IFLAG USA_AGENCY USA_ATCF_ID USA_LAT USA_LON USA_RECORD USA_STATUS USA_WIND USA_PRES USA_SSHS USA_R34_NE USA_R34_SE USA_R34_SW USA_R34_NW USA_R50_NE USA_R50_SE USA_R50_SW USA_R50_NW USA_R64_NE USA_R64_SE USA_R64_SW USA_R64_NW USA_POCI USA_ROCI USA_RMW USA_EYE TOKYO_LAT TOKYO_LON TOKYO_GRADE TOKYO_WIND TOKYO_PRES TOKYO_R50_DIR TOKYO_R50_LONG TOKYO_R50_SHORT TOKYO_R30_DIR TOKYO_R30_LONG TOKYO_R30_SHORT TOKYO_LAND CMA_LAT CMA_LON CMA_CAT CMA_WIND CMA_PRES HKO_LAT HKO_LON HKO_CAT HKO_WIND HKO_PRES NEWDELHI_LAT NEWDELHI_LON NEWDELHI_GRADE NEWDELHI_WIND NEWDELHI_PRES NEWDELHI_CI NEWDELHI_DP NEWDELHI_POCI REUNION_LAT REUNION_LON REUNION_TYPE REUNION_WIND REUNION_PRES REUNION_TNUM REUNION_CI REUNION_RMW REUNION_R34_NE REUNION_R34_SE REUNION_R34_SW REUNION_R34_NW REUNION_R50_NE REUNION_R50_SE REUNION_R50_SW REUNION_R50_NW REUNION_R64_NE REUNION_R64_SE REUNION_R64_SW REUNION_R64_NW BOM_LAT BOM_LON BOM_TYPE BOM_WIND BOM_PRES BOM_TNUM BOM_CI BOM_RMW BOM_R34_NE BOM_R34_SE BOM_R34_SW BOM_R34_NW BOM_R50_NE BOM_R50_SE BOM_R50_SW BOM_R50_NW BOM_R64_NE BOM_R64_SE BOM_R64_SW BOM_R64_NW BOM_ROCI BOM_POCI BOM_EYE BOM_POS_METHOD BOM_PRES_METHOD NADI_LAT NADI_LON NADI_CAT NADI_WIND NADI_PRES WELLINGTON_LAT WELLINGTON_LON WELLINGTON_WIND WELLINGTON_PRES DS824_LAT DS824_LON DS824_STAGE DS824_WIND DS824_PRES TD9636_LAT TD9636_LON TD9636_STAGE TD9636_WIND TD9636_PRES TD9635_LAT TD9635_LON TD9635_WIND TD9635_PRES TD9635_ROCI NEUMANN_LAT NEUMANN_LON NEUMANN_CLASS NEUMANN_WIND NEUMANN_PRES MLC_LAT MLC_LON MLC_CLASS MLC_WIND MLC_PRES USA_GUST BOM_GUST BOM_GUST_PER REUNION_GUST REUNION_GUST_PER USA_SEAHGT USA_SEARAD_NE USA_SEARAD_SE USA_SEARAD_SW USA_SEARAD_NW STORM_SPEED STORM_DIR
1906060S14058 1906 8 SI MM NOT_NAMED 1906-03-01 06:00:00 NR -14.4000 58.0000 reunion spur-split 638 638 _____O________ -1 -14.4000 58.0000 99 9.90000 1 225
1906060S14058 1906 8 SI MM NOT_NAMED 1906-03-01 09:00:00 NR -14.4398 57.9643 spur-split 638 627 _____P________ -1 -14.4398 57.9643 99 1 224
1906060S14058 1906 8 SI MM NOT_NAMED 1906-03-01 12:00:00 NR -14.4853 57.9190 spur-split 627 627 _____P________ -1 -14.4853 57.9190 99 1 226
1906060S14058 1906 8 SI MM NOT_NAMED 1906-03-01 15:00:00 NR -14.5423 57.8544 spur-split 627 615 _____P________ -1 -14.5423 57.8544 99 2 229
1906060S14058 1906 8 SI MM NOT_NAMED 1906-03-01 18:00:00 NR -14.6166 57.7607 spur-split 615 604 _____P________ -1 -14.6166 57.7607 99 3 232
1906060S14058 1906 8 SI MM NOT_NAMED 1906-03-01 21:00:00 NR -14.7138 57.6283 spur-split 604 593 _____P________ -1 -14.7138 57.6283 99 4 234
1906060S14058 1906 8 SI MM NOT_NAMED 1906-03-02 00:00:00 NR -14.8397 57.4473 spur-split 593 571 _____P________ -1 -14.8397 57.4473 99 5 235
1906060S14058 1906 8 SI MM NOT_NAMED 1906-03-02 03:00:00 NR -14.9999 57.2079 spur-split 571 550 _____P________ -1 -14.9999 57.2079 99 6 236
1906060S14058 1906 8 SI MM NOT_NAMED 1906-03-02 06:00:00 NR -15.2000 56.9000 reunion spur-split 551 532 _____O________ -1 -15.2000 56.9000 99 9.90000 8 236
1906060S14058 1906 8 SI MM NOT_NAMED 1906-03-02 09:00:00 NR -15.4435 56.5181 spur-split 536 511 _____P________ -1 -15.4435 56.5181 99 10 237
1906060S14058 1906 8 SI MM NOT_NAMED 1906-03-02 12:00:00 NR -15.7260 56.0746 spur-split 514 496 _____P________ -1 -15.7260 56.0746 99 11 236
1906060S14058 1906 8 SI MM NOT_NAMED 1906-03-02 15:00:00 NR -16.0414 55.5870 spur-split 500 485 _____P________ -1 -16.0414 55.5870 99 12 236
1906060S14058 1906 8 SI MM NOT_NAMED 1906-03-02 18:00:00 NR -16.3833 55.0726 spur-split 485 461 _____P________ -1 -16.3833 55.0726 99 12 235
1906060S14058 1906 8 SI MM NOT_NAMED 1906-03-02 21:00:00 NR -16.7460 54.5489 spur-split 451 424 _____P________ -1 -16.7460 54.5489 99 12 233
1906060S14058 1906 8 SI MM NOT_NAMED 1906-03-03 00:00:00 NR -17.1233 54.0337 spur-split 419 394 _____P________ -1 -17.1233 54.0337 99 12 231
1906060S14058 1906 8 SI MM NOT_NAMED 1906-03-03 03:00:00 NR -17.5098 53.5447 spur-split 389 371 _____P________ -1 -17.5098 53.5447 99 12 229
1906060S14058 1906 8 SI MM NOT_NAMED 1906-03-03 06:00:00 NR -17.9000 53.1000 reunion spur-split 371 343 _____O________ -1 -17.9000 53.1000 99 9.90000 11 227
1906060S14058 1906 8 SI MM NOT_NAMED 1906-03-03 09:00:00 NR -18.2736 52.6910 spur-split 345 309 _____P________ -1 -18.2736 52.6910 99 11 225
1906060S14058 1906 8 SI MM NOT_NAMED 1906-03-03 12:00:00 NR -18.6567 52.3110 spur-split 310 288 _____P________ -1 -18.6567 52.3110 99 10 222
1906060S14058 1906 8 SI MM NOT_NAMED 1906-03-03 15:00:00 NR -19.0464 51.9680 spur-split 288 271 _____P________ -1 -19.0464 51.9680 99 10 218
1906060S14058 1906 8 SI MM NOT_NAMED 1906-03-03 18:00:00 NR -19.4401 51.6703 spur-split 274 257 _____P________ -1 -19.4401 51.6703 99 9 213
1906060S14058 1906 8 SI MM NOT_NAMED 1906-03-03 21:00:00 NR -19.8351 51.4261 spur-split 257 256 _____P________ -1 -19.8351 51.4261 99 9 207
1906060S14058 1906 8 SI MM NOT_NAMED 1906-03-04 00:00:00 NR -20.2285 51.2439 spur-split 251 246 _____P________ -1 -20.2285 51.2439 99 8 199
1906060S14058 1906 8 SI MM NOT_NAMED 1906-03-04 03:00:00 NR -20.6178 51.1323 spur-split 249 249 _____P________ -1 -20.6178 51.1323 99 8 190
1906060S14058 1906 8 SI MM NOT_NAMED 1906-03-04 06:00:00 NR -21.0000 51.1000 reunion spur-split 264 264 _____O________ -1 -21.0000 51.1000 99 9.90000 8 179
1906060S14058 1906 8 SI MM NOT_NAMED 1906-03-04 09:00:00 NR -21.3672 51.1462 spur-split 282 282 _____P________ -1 -21.3672 51.1462 99 8 168
1906060S14058 1906 8 SI MM NOT_NAMED 1906-03-04 12:00:00 NR -21.7290 51.2758 spur-split 310 310 _____P________ -1 -21.7290 51.2758 99 8 157
1906060S14058 1906 8 SI MM NOT_NAMED 1906-03-04 15:00:00 NR -22.0855 51.4763 spur-split 339 339 _____P________ -1 -22.0855 51.4763 99 8 149
1906060S14058 1906 8 SI MM NOT_NAMED 1906-03-04 18:00:00 NR -22.4370 51.7353 spur-split 366 366 _____P________ -1 -22.4370 51.7353 99 9 143
1906060S14058 1906 8 SI MM NOT_NAMED 1906-03-04 21:00:00 NR -22.7839 52.0400 spur-split 379 359 _____P________ -1 -22.7839 52.0400 99 9 139
1906060S14058 1906 8 SI MM NOT_NAMED 1906-03-05 00:00:00 NR -23.1264 52.3776 spur-split 359 355 _____P________ -1 -23.1264 52.3776 99 9 137
1906060S14058 1906 8 SI MM NOT_NAMED 1906-03-05 03:00:00 NR -23.4650 52.7353 spur-split 363 355 _____P________ -1 -23.4650 52.7353 99 9 135
1906060S14058 1906 8 SI MM NOT_NAMED 1906-03-05 06:00:00 NR -23.8000 53.1000 reunion spur-split 359 359 _____O________ -1 -23.8000 53.1000 99 9.90000 10 137
1906060S14058 1906 8 SI MM NOT_NAMED 1906-03-05 09:00:00 NR -24.1619 53.4380 spur-split 378 372 _____P________ -1 -24.1619 53.4380 99 10 139
1906060S14058 1906 8 SI MM NOT_NAMED 1906-03-05 12:00:00 NR -24.5228 53.7962 spur-split 389 389 _____P________ -1 -24.5228 53.7962 99 10 137
1906060S14058 1906 8 SI MM NOT_NAMED 1906-03-05 15:00:00 NR -24.8780 54.1664 spur-split 416 416 _____P________ -1 -24.8780 54.1664 99 10 136
1906060S14058 1906 8 SI MM NOT_NAMED 1906-03-05 18:00:00 NR -25.2224 54.5403 spur-split 439 436 _____P________ -1 -25.2224 54.5403 99 10 135
1906060S14058 1906 8 SI MM NOT_NAMED 1906-03-05 21:00:00 NR -25.5515 54.9093 spur-split 474 473 _____P________ -1 -25.5515 54.9093 99 9 134
1906060S14058 1906 8 SI MM NOT_NAMED 1906-03-06 00:00:00 NR -25.8605 55.2648 spur-split 503 503 _____P________ -1 -25.8605 55.2648 99 9 134
1906060S14058 1906 8 SI MM NOT_NAMED 1906-03-06 03:00:00 NR -26.1449 55.5980 spur-split 525 525 _____P________ -1 -26.1449 55.5980 99 8 133
1906060S14058 1906 8 SI MM NOT_NAMED 1906-03-06 06:00:00 NR -26.4000 55.9000 reunion spur-split 559 559 _____O________ -1 -26.4000 55.9000 99 9.90000 7 133
1906060S14058 1906 8 SI MM NOT_NAMED 1906-03-06 09:00:00 NR -26.6229 56.1641 spur-split 584 584 _____P________ -1 -26.6229 56.1641 99 6 133
1906060S14058 1906 8 SI MM NOT_NAMED 1906-03-06 12:00:00 NR -26.8166 56.3927 spur-split 608 608 _____P________ -1 -26.8166 56.3927 99 5 133
1906060S14058 1906 8 SI MM NOT_NAMED 1906-03-06 15:00:00 NR -26.9852 56.5909 spur-split 633 633 _____P________ -1 -26.9852 56.5909 99 5 134
1906060S14058 1906 8 SI MM NOT_NAMED 1906-03-06 18:00:00 NR -27.1330 56.7634 spur-split 648 648 _____P________ -1 -27.1330 56.7634 99 4 134
1906060S14058 1906 8 SI MM NOT_NAMED 1906-03-06 21:00:00 NR -27.2642 56.9154 spur-split 672 672 _____P________ -1 -27.2642 56.9154 99 4 134
1906060S14058 1906 8 SI MM NOT_NAMED 1906-03-07 00:00:00 NR -27.3831 57.0521 spur-split 687 687 _____P________ -1 -27.3831 57.0521 99 3 134
1906060S14058 1906 8 SI MM NOT_NAMED 1906-03-07 03:00:00 NR -27.4936 57.1786 spur-split 700 700 _____P________ -1 -27.4936 57.1786 99 3 135
1906060S14058 1906 8 SI MM NOT_NAMED 1906-03-07 06:00:00 NR -27.6000 57.3000 reunion spur-split 713 _____O________ -1 -27.6000 57.3000 99 9.90000 3 136

IBTrACS Databaseについて

本データベースは、米国NOAAが公開する1842年以降の世界の熱帯低気圧のベストトラックデータアーカイブInternational Best Track Archive for Climate Stewardship (IBTrACS)を、ウェブで閲覧しやすい形式に変換したものです。

最終更新日:2021-10-27